Aviation Digital Data Service (ADDS)

Output produced by METARs form (0357 UTC 28 May 2016)
found at http://www.aviationweather.gov/adds/metars/
 
KTHV 280353Z AUTO 00000KT 10SM CLR 21/19 A3008 RMK AO2 SLP184 T02110189
KTHV 280253Z AUTO 00000KT 10SM CLR 23/19 A3008 RMK AO2 SLP184 60000 T02280189 53010
KTHV 280153Z AUTO 20008KT 10SM CLR 24/18 A3006 RMK AO2 RAB0056E41 SLP176 P0000 T02390178
KTHV 280053Z AUTO 26009G17KT 10SM SCT120 24/17 A3005 RMK AO2 SLP175 T02440167
KTHV 272353Z AUTO 29009KT 250V310 10SM BKN055 BKN070 27/19 A3005 RMK AO2 LTG DSNT SW SLP174 T02670189 10311 20267 53009
KTHV 272253Z AUTO 23003KT 10SM CLR 28/17 A3002 RMK AO2 LTG DSNT NW SLP164 T02830172
KTHV 272153Z AUTO 20005KT 10SM CLR 31/19 A3001 RMK AO2 SLP161 T03060189
KTHV 272053Z AUTO VRB03KT 10SM SCT055 31/19 A3002 RMK AO2 SLP164 T03060194 58010
KTHV 271953Z AUTO 22007KT 10SM SCT050 31/19 A3004 RMK AO2 SLP168 T03060194
KTHV 271853Z AUTO 26005KT 10SM CLR 30/19 A3005 RMK AO2 SLP173 T03000189
KTHV 271753Z AUTO 15004KT 10SM CLR 30/20 A3005 RMK AO2 SLP174 T03000200 10300 20233 58008
KTHV 271653Z AUTO VRB03KT 10SM BKN042 29/20 A3006 RMK AO2 SLP177 T02940200
KTHV 271553Z AUTO 00000KT 10SM BKN041 28/19 A3007 RMK AO2 SLP181 T02780189
KTHV 271453Z AUTO VRB05KT 10SM CLR 27/19 A3008 RMK AO2 SLP183 T02720194 51001
KTHV 271353Z AUTO VRB04KT 10SM CLR 26/19 A3007 RMK AO2 SLP182 T02610194
KTHV 271253Z AUTO 25005KT 10SM CLR 24/19 A3008 RMK AO2 SLP184 T02440189
KTHV 271153Z AUTO 00000KT 9SM CLR 23/19 A3007 RMK AO2 SLP181 T02330189 10233 20167 51010
KTHV 271053Z AUTO 00000KT 6SM BR SCT065 20/18 A3007 RMK AO2 SLP181 T02000183
KTHV 270953Z AUTO 29003KT 4SM BR CLR 17/16 A3006 RMK AO2 SLP177 T01720161
KTHV 270853Z AUTO 00000KT 8SM CLR 18/17 A3004 RMK AO2 SLP171 T01830172 50002
KTHV 270753Z AUTO 00000KT 10SM CLR 21/18 A3004 RMK AO2 SLP171 T02110178
KTHV 270653Z AUTO 00000KT 10SM BKN120 21/18 A3005 RMK AO2 SLP173 T02110178
KTHV 270553Z AUTO 20004KT 10SM FEW080 BKN110 23/18 A3004 RMK AO2 SLP168 T02280178 10261 20228 55001
KTHV 270453Z AUTO 19005KT 10SM SCT110 24/18 A3004 RMK AO2 SLP168 T02390178 403060117
KTHV 270353Z AUTO 21004KT 10SM CLR 23/18 A3003 RMK AO2 SLP167 T02330183
KTHV 270253Z AUTO 00000KT 10SM FEW060 FEW100 23/18 A3004 RMK AO2 SLP171 T02280183 53008
KTHV 270153Z AUTO VRB03KT 10SM CLR 25/18 A3002 RMK AO2 SLP165 T02500183
KTHV 270053Z AUTO 15005KT 10SM SCT085 25/18 A3002 RMK AO2 SLP162 T02500178
KTHV 262353Z AUTO 00000KT 10SM CLR 24/19 A3002 RMK AO2 SLP164 T02440189 10306 20244 55003
KTHV 262253Z AUTO 21003KT 10SM FEW120 28/18 A3001 RMK AO2 SLP162 T02780178
KTHV 262153Z AUTO 00000KT 10SM FEW090 28/16 A3001 RMK AO2 SLP162 T02830161
KTHV 262053Z AUTO 21004KT 10SM SCT100 29/16 A3003 RMK AO2 SLP167 T02940161 58008
KTHV 261953Z AUTO 20007KT 10SM FEW100 30/14 A3004 RMK AO2 SLP170 T03000144
KTHV 261853Z AUTO 21007KT 10SM SCT085 29/16 A3004 RMK AO2 SLP173 T02940156
KTHV 261753Z AUTO 00000KT 10SM CLR 31/16 A3005 RMK AO2 SLP174 T03060156 10306 20183 58015
KTHV 261653Z AUTO 23008KT 200V260 10SM CLR 30/15 A3007 RMK AO2 SLP181 T03000150